sensor_id;sensor_type;location;lat;lon;timestamp;temperature;humidity
75621;DHT22;64574;48.506;-2.750;2024-01-06T00:02:05;6.90;80.50
75621;DHT22;64574;48.506;-2.750;2024-01-06T00:04:31;6.90;80.00
75621;DHT22;64574;48.506;-2.750;2024-01-06T00:06:57;6.80;79.70
75621;DHT22;64574;48.506;-2.750;2024-01-06T00:09:23;6.80;79.70
75621;DHT22;64574;48.506;-2.750;2024-01-06T00:11:48;6.90;79.80
75621;DHT22;64574;48.506;-2.750;2024-01-06T00:14:14;6.90;79.40
75621;DHT22;64574;48.506;-2.750;2024-01-06T00:16:39;6.80;79.50
75621;DHT22;64574;48.506;-2.750;2024-01-06T00:19:05;6.80;80.00
75621;DHT22;64574;48.506;-2.750;2024-01-06T00:21:31;6.80;79.90
75621;DHT22;64574;48.506;-2.750;2024-01-06T00:23:56;6.80;79.70
75621;DHT22;64574;48.506;-2.750;2024-01-06T00:26:22;6.90;79.80
75621;DHT22;64574;48.506;-2.750;2024-01-06T00:28:48;6.80;79.40
75621;DHT22;64574;48.506;-2.750;2024-01-06T00:31:15;6.90;79.80
75621;DHT22;64574;48.506;-2.750;2024-01-06T00:33:44;6.80;79.70
75621;DHT22;64574;48.506;-2.750;2024-01-06T00:36:10;6.70;79.80
75621;DHT22;64574;48.506;-2.750;2024-01-06T00:38:36;6.90;79.80
75621;DHT22;64574;48.506;-2.750;2024-01-06T00:41:02;6.90;79.60
75621;DHT22;64574;48.506;-2.750;2024-01-06T00:43:27;7.00;79.90
75621;DHT22;64574;48.506;-2.750;2024-01-06T00:45:53;7.00;79.60
75621;DHT22;64574;48.506;-2.750;2024-01-06T00:48:18;7.00;79.60
75621;DHT22;64574;48.506;-2.750;2024-01-06T00:50:44;6.90;80.80
75621;DHT22;64574;48.506;-2.750;2024-01-06T00:53:11;7.00;82.40
75621;DHT22;64574;48.506;-2.750;2024-01-06T00:55:36;7.20;83.20
75621;DHT22;64574;48.506;-2.750;2024-01-06T00:58:02;7.10;82.10
75621;DHT22;64574;48.506;-2.750;2024-01-06T01:00:27;7.10;82.30
75621;DHT22;64574;48.506;-2.750;2024-01-06T01:02:53;7.00;82.80
75621;DHT22;64574;48.506;-2.750;2024-01-06T01:05:19;7.00;82.40
75621;DHT22;64574;48.506;-2.750;2024-01-06T01:07:45;7.10;82.60
75621;DHT22;64574;48.506;-2.750;2024-01-06T01:10:10;7.20;82.70
75621;DHT22;64574;48.506;-2.750;2024-01-06T01:12:36;7.00;82.60
75621;DHT22;64574;48.506;-2.750;2024-01-06T01:15:02;6.80;83.40
75621;DHT22;64574;48.506;-2.750;2024-01-06T01:17:28;6.80;83.80
75621;DHT22;64574;48.506;-2.750;2024-01-06T01:19:55;6.80;83.90
75621;DHT22;64574;48.506;-2.750;2024-01-06T01:22:20;6.90;83.60
75621;DHT22;64574;48.506;-2.750;2024-01-06T01:24:46;6.90;83.10
75621;DHT22;64574;48.506;-2.750;2024-01-06T01:27:12;7.00;82.90
75621;DHT22;64574;48.506;-2.750;2024-01-06T01:29:38;6.90;82.30
75621;DHT22;64574;48.506;-2.750;2024-01-06T01:32:04;6.80;82.00
75621;DHT22;64574;48.506;-2.750;2024-01-06T01:34:29;6.90;82.30
75621;DHT22;64574;48.506;-2.750;2024-01-06T01:36:55;7.00;82.30
75621;DHT22;64574;48.506;-2.750;2024-01-06T01:39:21;7.00;82.00
75621;DHT22;64574;48.506;-2.750;2024-01-06T01:41:46;6.80;81.50
75621;DHT22;64574;48.506;-2.750;2024-01-06T01:44:12;6.80;81.60
75621;DHT22;64574;48.506;-2.750;2024-01-06T01:46:38;6.90;81.60
75621;DHT22;64574;48.506;-2.750;2024-01-06T01:49:04;6.90;81.30
75621;DHT22;64574;48.506;-2.750;2024-01-06T01:51:34;6.90;81.20
75621;DHT22;64574;48.506;-2.750;2024-01-06T01:54:02;6.90;81.20
75621;DHT22;64574;48.506;-2.750;2024-01-06T01:56:30;6.90;81.20
75621;DHT22;64574;48.506;-2.750;2024-01-06T01:59:11;6.90;81.00
75621;DHT22;64574;48.506;-2.750;2024-01-06T02:01:38;6.90;80.80
75621;DHT22;64574;48.506;-2.750;2024-01-06T02:04:04;6.90;80.90
75621;DHT22;64574;48.506;-2.750;2024-01-06T02:06:29;7.00;80.80
75621;DHT22;64574;48.506;-2.750;2024-01-06T02:08:55;7.00;80.60
75621;DHT22;64574;48.506;-2.750;2024-01-06T02:11:21;7.00;80.50
75621;DHT22;64574;48.506;-2.750;2024-01-06T02:13:46;6.90;80.40
75621;DHT22;64574;48.506;-2.750;2024-01-06T02:16:12;6.80;80.60
75621;DHT22;64574;48.506;-2.750;2024-01-06T02:18:38;6.80;80.70
75621;DHT22;64574;48.506;-2.750;2024-01-06T02:21:03;6.80;80.70
75621;DHT22;64574;48.506;-2.750;2024-01-06T02:23:29;6.80;80.40
75621;DHT22;64574;48.506;-2.750;2024-01-06T02:25:56;6.80;80.10
75621;DHT22;64574;48.506;-2.750;2024-01-06T02:28:22;6.80;80.10
75621;DHT22;64574;48.506;-2.750;2024-01-06T02:30:47;6.80;80.10
75621;DHT22;64574;48.506;-2.750;2024-01-06T02:33:13;6.80;80.20
75621;DHT22;64574;48.506;-2.750;2024-01-06T02:35:39;6.80;80.20
75621;DHT22;64574;48.506;-2.750;2024-01-06T02:38:06;6.80;80.20
75621;DHT22;64574;48.506;-2.750;2024-01-06T02:40:31;6.80;80.00
75621;DHT22;64574;48.506;-2.750;2024-01-06T02:42:58;6.80;79.90
75621;DHT22;64574;48.506;-2.750;2024-01-06T02:45:24;6.90;79.70
75621;DHT22;64574;48.506;-2.750;2024-01-06T02:47:49;6.90;79.20
75621;DHT22;64574;48.506;-2.750;2024-01-06T02:50:15;6.90;79.00
75621;DHT22;64574;48.506;-2.750;2024-01-06T02:52:40;6.90;78.70
75621;DHT22;64574;48.506;-2.750;2024-01-06T02:55:06;7.00;78.70
75621;DHT22;64574;48.506;-2.750;2024-01-06T02:57:32;6.90;79.00
75621;DHT22;64574;48.506;-2.750;2024-01-06T02:59:58;7.00;79.00
75621;DHT22;64574;48.506;-2.750;2024-01-06T03:02:23;7.00;78.60
75621;DHT22;64574;48.506;-2.750;2024-01-06T03:04:49;7.00;78.40
75621;DHT22;64574;48.506;-2.750;2024-01-06T03:07:14;7.00;78.50
75621;DHT22;64574;48.506;-2.750;2024-01-06T03:09:40;7.00;78.30
75621;DHT22;64574;48.506;-2.750;2024-01-06T03:12:06;7.10;78.00
75621;DHT22;64574;48.506;-2.750;2024-01-06T03:14:34;7.00;78.10
75621;DHT22;64574;48.506;-2.750;2024-01-06T03:17:00;7.00;78.30
75621;DHT22;64574;48.506;-2.750;2024-01-06T03:19:25;7.00;78.40
75621;DHT22;64574;48.506;-2.750;2024-01-06T03:21:53;7.00;78.40
75621;DHT22;64574;48.506;-2.750;2024-01-06T03:24:19;7.00;78.10
75621;DHT22;64574;48.506;-2.750;2024-01-06T03:26:45;7.10;77.80
75621;DHT22;64574;48.506;-2.750;2024-01-06T03:29:10;7.10;77.50
75621;DHT22;64574;48.506;-2.750;2024-01-06T03:31:37;7.00;77.50
75621;DHT22;64574;48.506;-2.750;2024-01-06T03:34:02;7.00;77.30
75621;DHT22;64574;48.506;-2.750;2024-01-06T03:36:28;7.00;77.30
75621;DHT22;64574;48.506;-2.750;2024-01-06T03:38:54;7.00;77.00
75621;DHT22;64574;48.506;-2.750;2024-01-06T03:41:19;7.00;76.50
75621;DHT22;64574;48.506;-2.750;2024-01-06T03:43:45;7.00;76.40
75621;DHT22;64574;48.506;-2.750;2024-01-06T03:46:11;7.00;76.50
75621;DHT22;64574;48.506;-2.750;2024-01-06T03:48:36;7.00;76.50
75621;DHT22;64574;48.506;-2.750;2024-01-06T03:51:03;7.00;76.40
75621;DHT22;64574;48.506;-2.750;2024-01-06T03:53:28;7.00;76.20
75621;DHT22;64574;48.506;-2.750;2024-01-06T03:55:54;7.00;76.30
75621;DHT22;64574;48.506;-2.750;2024-01-06T03:58:20;7.00;76.50
75621;DHT22;64574;48.506;-2.750;2024-01-06T04:00:45;7.10;76.30
75621;DHT22;64574;48.506;-2.750;2024-01-06T04:03:11;7.10;76.50
75621;DHT22;64574;48.506;-2.750;2024-01-06T04:05:36;7.10;76.20
75621;DHT22;64574;48.506;-2.750;2024-01-06T04:08:02;7.00;76.50
75621;DHT22;64574;48.506;-2.750;2024-01-06T04:10:28;7.00;76.90
75621;DHT22;64574;48.506;-2.750;2024-01-06T04:12:53;6.90;77.00
75621;DHT22;64574;48.506;-2.750;2024-01-06T04:15:19;6.90;77.20
75621;DHT22;64574;48.506;-2.750;2024-01-06T04:17:48;6.90;77.20
75621;DHT22;64574;48.506;-2.750;2024-01-06T04:20:14;6.90;76.90
75621;DHT22;64574;48.506;-2.750;2024-01-06T04:22:40;6.90;76.80
75621;DHT22;64574;48.506;-2.750;2024-01-06T04:25:06;6.90;76.90
75621;DHT22;64574;48.506;-2.750;2024-01-06T04:27:31;7.00;76.70
75621;DHT22;64574;48.506;-2.750;2024-01-06T04:29:59;7.00;76.40
75621;DHT22;64574;48.506;-2.750;2024-01-06T04:32:25;7.10;76.10
75621;DHT22;64574;48.506;-2.750;2024-01-06T04:34:50;7.00;76.20
75621;DHT22;64574;48.506;-2.750;2024-01-06T04:37:16;7.10;76.40
75621;DHT22;64574;48.506;-2.750;2024-01-06T04:39:41;7.00;76.70
75621;DHT22;64574;48.506;-2.750;2024-01-06T04:42:07;7.10;76.80
75621;DHT22;64574;48.506;-2.750;2024-01-06T04:44:33;7.00;76.70
75621;DHT22;64574;48.506;-2.750;2024-01-06T04:46:58;7.00;76.70
75621;DHT22;64574;48.506;-2.750;2024-01-06T04:49:24;7.20;76.10
75621;DHT22;64574;48.506;-2.750;2024-01-06T04:51:49;7.20;75.40
75621;DHT22;64574;48.506;-2.750;2024-01-06T04:54:15;7.20;74.90
75621;DHT22;64574;48.506;-2.750;2024-01-06T04:56:41;7.20;74.90
75621;DHT22;64574;48.506;-2.750;2024-01-06T04:59:06;7.20;74.60
75621;DHT22;64574;48.506;-2.750;2024-01-06T05:01:32;7.30;74.50
75621;DHT22;64574;48.506;-2.750;2024-01-06T05:03:58;7.40;74.40
75621;DHT22;64574;48.506;-2.750;2024-01-06T05:06:24;7.40;74.50
75621;DHT22;64574;48.506;-2.750;2024-01-06T05:08:50;7.40;74.50
75621;DHT22;64574;48.506;-2.750;2024-01-06T05:11:16;7.40;74.70
75621;DHT22;64574;48.506;-2.750;2024-01-06T05:13:41;7.30;74.90
75621;DHT22;64574;48.506;-2.750;2024-01-06T05:16:08;7.30;75.00
75621;DHT22;64574;48.506;-2.750;2024-01-06T05:18:34;7.30;75.30
75621;DHT22;64574;48.506;-2.750;2024-01-06T05:21:00;7.20;75.60
75621;DHT22;64574;48.506;-2.750;2024-01-06T05:23:26;7.20;75.90
75621;DHT22;64574;48.506;-2.750;2024-01-06T05:25:51;7.10;76.20
75621;DHT22;64574;48.506;-2.750;2024-01-06T05:28:17;7.20;76.30
75621;DHT22;64574;48.506;-2.750;2024-01-06T05:30:43;7.10;76.40
75621;DHT22;64574;48.506;-2.750;2024-01-06T05:33:12;7.10;76.50
75621;DHT22;64574;48.506;-2.750;2024-01-06T05:35:41;7.00;76.60
75621;DHT22;64574;48.506;-2.750;2024-01-06T05:38:06;7.00;76.80
75621;DHT22;64574;48.506;-2.750;2024-01-06T05:40:32;6.90;76.90
75621;DHT22;64574;48.506;-2.750;2024-01-06T05:42:58;6.90;77.00
75621;DHT22;64574;48.506;-2.750;2024-01-06T05:45:23;6.80;77.30
75621;DHT22;64574;48.506;-2.750;2024-01-06T05:47:49;6.80;77.40
75621;DHT22;64574;48.506;-2.750;2024-01-06T05:50:16;6.80;77.40
75621;DHT22;64574;48.506;-2.750;2024-01-06T05:52:42;6.80;77.10
75621;DHT22;64574;48.506;-2.750;2024-01-06T05:55:08;6.80;77.30
75621;DHT22;64574;48.506;-2.750;2024-01-06T05:57:34;6.80;77.20
75621;DHT22;64574;48.506;-2.750;2024-01-06T06:00:00;6.80;77.00
75621;DHT22;64574;48.506;-2.750;2024-01-06T06:02:25;6.70;77.20
75621;DHT22;64574;48.506;-2.750;2024-01-06T06:04:51;6.70;77.00
75621;DHT22;64574;48.506;-2.750;2024-01-06T06:07:18;6.70;77.10
75621;DHT22;64574;48.506;-2.750;2024-01-06T06:09:44;6.70;77.10
75621;DHT22;64574;48.506;-2.750;2024-01-06T06:12:12;6.70;77.10
75621;DHT22;64574;48.506;-2.750;2024-01-06T06:14:38;6.80;76.90
75621;DHT22;64574;48.506;-2.750;2024-01-06T06:17:04;6.80;77.00
75621;DHT22;64574;48.506;-2.750;2024-01-06T06:19:30;6.80;76.60
75621;DHT22;64574;48.506;-2.750;2024-01-06T06:21:57;6.80;76.90
75621;DHT22;64574;48.506;-2.750;2024-01-06T06:24:22;6.80;77.00
75621;DHT22;64574;48.506;-2.750;2024-01-06T06:26:48;6.80;76.80
75621;DHT22;64574;48.506;-2.750;2024-01-06T06:29:14;6.80;77.00
75621;DHT22;64574;48.506;-2.750;2024-01-06T06:31:39;6.80;77.30
75621;DHT22;64574;48.506;-2.750;2024-01-06T06:34:05;6.80;78.30
75621;DHT22;64574;48.506;-2.750;2024-01-06T06:36:30;6.80;80.00
75621;DHT22;64574;48.506;-2.750;2024-01-06T06:38:56;7.00;80.90
75621;DHT22;64574;48.506;-2.750;2024-01-06T06:41:24;6.90;80.60
75621;DHT22;64574;48.506;-2.750;2024-01-06T06:43:50;6.90;81.10
75621;DHT22;64574;48.506;-2.750;2024-01-06T06:46:16;7.00;81.80
75621;DHT22;64574;48.506;-2.750;2024-01-06T06:48:42;6.90;81.70
75621;DHT22;64574;48.506;-2.750;2024-01-06T06:51:07;6.90;80.90
75621;DHT22;64574;48.506;-2.750;2024-01-06T06:53:33;7.00;81.60
75621;DHT22;64574;48.506;-2.750;2024-01-06T06:55:58;7.00;81.70
75621;DHT22;64574;48.506;-2.750;2024-01-06T06:58:24;6.80;80.80
75621;DHT22;64574;48.506;-2.750;2024-01-06T07:00:50;6.50;81.40
75621;DHT22;64574;48.506;-2.750;2024-01-06T07:03:15;6.40;82.30
75621;DHT22;64574;48.506;-2.750;2024-01-06T07:05:41;6.50;82.40
75621;DHT22;64574;48.506;-2.750;2024-01-06T07:08:07;6.40;83.60
75621;DHT22;64574;48.506;-2.750;2024-01-06T07:10:32;6.50;85.30
75621;DHT22;64574;48.506;-2.750;2024-01-06T07:12:58;6.50;84.80
75621;DHT22;64574;48.506;-2.750;2024-01-06T07:15:23;6.60;83.40
75621;DHT22;64574;48.506;-2.750;2024-01-06T07:17:49;6.60;82.80
75621;DHT22;64574;48.506;-2.750;2024-01-06T07:20:15;6.70;83.30
75621;DHT22;64574;48.506;-2.750;2024-01-06T07:22:41;6.60;81.30
75621;DHT22;64574;48.506;-2.750;2024-01-06T07:25:06;6.50;81.40
75621;DHT22;64574;48.506;-2.750;2024-01-06T07:27:32;6.50;81.70
75621;DHT22;64574;48.506;-2.750;2024-01-06T07:29:58;6.50;81.60
75621;DHT22;64574;48.506;-2.750;2024-01-06T07:32:24;6.60;82.00
75621;DHT22;64574;48.506;-2.750;2024-01-06T07:34:50;6.70;81.50
75621;DHT22;64574;48.506;-2.750;2024-01-06T07:37:16;6.50;80.70
75621;DHT22;64574;48.506;-2.750;2024-01-06T07:39:42;6.50;80.90
75621;DHT22;64574;48.506;-2.750;2024-01-06T07:42:08;6.50;80.80
75621;DHT22;64574;48.506;-2.750;2024-01-06T07:44:34;6.50;79.20
75621;DHT22;64574;48.506;-2.750;2024-01-06T07:47:00;6.70;77.70
75621;DHT22;64574;48.506;-2.750;2024-01-06T07:49:27;6.70;76.20
75621;DHT22;64574;48.506;-2.750;2024-01-06T07:51:53;6.70;75.40
75621;DHT22;64574;48.506;-2.750;2024-01-06T07:54:18;6.70;77.40
75621;DHT22;64574;48.506;-2.750;2024-01-06T07:56:44;6.70;78.30
75621;DHT22;64574;48.506;-2.750;2024-01-06T07:59:10;6.70;79.30
75621;DHT22;64574;48.506;-2.750;2024-01-06T08:01:36;6.70;79.70
75621;DHT22;64574;48.506;-2.750;2024-01-06T08:04:02;6.70;80.20
75621;DHT22;64574;48.506;-2.750;2024-01-06T08:06:28;6.80;80.40
75621;DHT22;64574;48.506;-2.750;2024-01-06T08:08:53;6.80;80.20
75621;DHT22;64574;48.506;-2.750;2024-01-06T08:11:20;6.70;79.90
75621;DHT22;64574;48.506;-2.750;2024-01-06T08:13:46;6.60;79.80
75621;DHT22;64574;48.506;-2.750;2024-01-06T08:16:12;6.70;80.00
75621;DHT22;64574;48.506;-2.750;2024-01-06T08:18:38;6.80;79.60
75621;DHT22;64574;48.506;-2.750;2024-01-06T08:21:03;6.70;78.70
75621;DHT22;64574;48.506;-2.750;2024-01-06T08:23:29;6.80;78.80
75621;DHT22;64574;48.506;-2.750;2024-01-06T08:25:55;6.80;78.70
75621;DHT22;64574;48.506;-2.750;2024-01-06T08:28:21;6.80;78.70
75621;DHT22;64574;48.506;-2.750;2024-01-06T08:30:48;6.80;78.70
75621;DHT22;64574;48.506;-2.750;2024-01-06T08:33:14;6.80;78.70
75621;DHT22;64574;48.506;-2.750;2024-01-06T08:35:40;6.90;79.00
75621;DHT22;64574;48.506;-2.750;2024-01-06T08:38:09;6.90;79.00
75621;DHT22;64574;48.506;-2.750;2024-01-06T08:40:35;6.80;79.00
75621;DHT22;64574;48.506;-2.750;2024-01-06T08:43:01;6.80;79.10
75621;DHT22;64574;48.506;-2.750;2024-01-06T08:45:27;6.90;79.00
75621;DHT22;64574;48.506;-2.750;2024-01-06T08:47:53;6.90;78.80
75621;DHT22;64574;48.506;-2.750;2024-01-06T08:50:19;6.90;78.80
75621;DHT22;64574;48.506;-2.750;2024-01-06T08:52:44;6.90;79.00
75621;DHT22;64574;48.506;-2.750;2024-01-06T08:55:10;6.90;79.10
75621;DHT22;64574;48.506;-2.750;2024-01-06T08:57:36;6.90;79.30
75621;DHT22;64574;48.506;-2.750;2024-01-06T09:00:03;6.90;79.40
75621;DHT22;64574;48.506;-2.750;2024-01-06T09:02:29;6.90;79.70
75621;DHT22;64574;48.506;-2.750;2024-01-06T09:04:55;7.00;79.40
75621;DHT22;64574;48.506;-2.750;2024-01-06T09:07:20;6.90;79.40
75621;DHT22;64574;48.506;-2.750;2024-01-06T09:09:46;7.00;79.40
75621;DHT22;64574;48.506;-2.750;2024-01-06T09:12:11;7.00;79.00
75621;DHT22;64574;48.506;-2.750;2024-01-06T09:14:37;7.00;78.80
75621;DHT22;64574;48.506;-2.750;2024-01-06T09:17:03;7.00;78.40
75621;DHT22;64574;48.506;-2.750;2024-01-06T09:19:29;7.00;78.40
75621;DHT22;64574;48.506;-2.750;2024-01-06T09:21:56;7.00;78.30
75621;DHT22;64574;48.506;-2.750;2024-01-06T09:24:22;7.10;78.50
75621;DHT22;64574;48.506;-2.750;2024-01-06T09:26:48;7.20;78.60
75621;DHT22;64574;48.506;-2.750;2024-01-06T09:29:16;7.20;78.30
75621;DHT22;64574;48.506;-2.750;2024-01-06T09:31:42;7.20;78.30
75621;DHT22;64574;48.506;-2.750;2024-01-06T09:34:11;7.10;78.10
75621;DHT22;64574;48.506;-2.750;2024-01-06T09:36:37;7.20;78.00
75621;DHT22;64574;48.506;-2.750;2024-01-06T09:39:03;7.20;77.50
75621;DHT22;64574;48.506;-2.750;2024-01-06T09:41:30;7.20;76.90
75621;DHT22;64574;48.506;-2.750;2024-01-06T09:43:56;7.30;76.90
75621;DHT22;64574;48.506;-2.750;2024-01-06T09:46:27;7.20;76.50
75621;DHT22;64574;48.506;-2.750;2024-01-06T09:48:54;7.30;75.70
75621;DHT22;64574;48.506;-2.750;2024-01-06T09:51:21;7.30;74.60
75621;DHT22;64574;48.506;-2.750;2024-01-06T09:56:23;7.60;72.10
75621;DHT22;64574;48.506;-2.750;2024-01-06T09:58:50;7.80;71.10
75621;DHT22;64574;48.506;-2.750;2024-01-06T10:01:17;7.80;71.30
75621;DHT22;64574;48.506;-2.750;2024-01-06T10:03:43;7.80;71.50
75621;DHT22;64574;48.506;-2.750;2024-01-06T10:06:08;7.80;72.00
75621;DHT22;64574;48.506;-2.750;2024-01-06T10:08:35;7.90;72.50
75621;DHT22;64574;48.506;-2.750;2024-01-06T10:11:01;7.80;73.20
75621;DHT22;64574;48.506;-2.750;2024-01-06T10:13:26;7.90;73.30
75621;DHT22;64574;48.506;-2.750;2024-01-06T10:15:54;8.00;73.00
75621;DHT22;64574;48.506;-2.750;2024-01-06T10:18:20;8.00;73.10
75621;DHT22;64574;48.506;-2.750;2024-01-06T10:20:46;8.00;73.30
75621;DHT22;64574;48.506;-2.750;2024-01-06T10:23:12;8.00;73.50
75621;DHT22;64574;48.506;-2.750;2024-01-06T10:25:38;8.00;73.30
75621;DHT22;64574;48.506;-2.750;2024-01-06T10:28:04;7.90;73.00
75621;DHT22;64574;48.506;-2.750;2024-01-06T10:30:30;7.90;72.90
75621;DHT22;64574;48.506;-2.750;2024-01-06T10:32:56;7.90;71.50
75621;DHT22;64574;48.506;-2.750;2024-01-06T10:35:25;8.00;71.00
75621;DHT22;64574;48.506;-2.750;2024-01-06T10:37:52;8.00;71.10
75621;DHT22;64574;48.506;-2.750;2024-01-06T10:40:17;8.00;71.20
75621;DHT22;64574;48.506;-2.750;2024-01-06T10:42:44;8.00;71.10
75621;DHT22;64574;48.506;-2.750;2024-01-06T10:45:10;8.10;71.00
75621;DHT22;64574;48.506;-2.750;2024-01-06T10:47:37;8.10;70.50
75621;DHT22;64574;48.506;-2.750;2024-01-06T10:50:02;8.10;71.00
75621;DHT22;64574;48.506;-2.750;2024-01-06T10:52:29;8.20;71.00
75621;DHT22;64574;48.506;-2.750;2024-01-06T10:54:54;8.10;71.30
75621;DHT22;64574;48.506;-2.750;2024-01-06T10:57:20;8.20;71.60
75621;DHT22;64574;48.506;-2.750;2024-01-06T10:59:46;8.20;71.00
75621;DHT22;64574;48.506;-2.750;2024-01-06T11:02:13;8.20;70.20
75621;DHT22;64574;48.506;-2.750;2024-01-06T11:04:41;8.30;68.50
75621;DHT22;64574;48.506;-2.750;2024-01-06T11:07:07;8.40;68.70
75621;DHT22;64574;48.506;-2.750;2024-01-06T11:09:33;8.40;68.40
75621;DHT22;64574;48.506;-2.750;2024-01-06T11:12:00;8.50;68.60
75621;DHT22;64574;48.506;-2.750;2024-01-06T11:14:26;8.50;68.80
75621;DHT22;64574;48.506;-2.750;2024-01-06T11:16:53;8.40;67.90
75621;DHT22;64574;48.506;-2.750;2024-01-06T11:24:48;8.40;67.80
75621;DHT22;64574;48.506;-2.750;2024-01-06T11:27:20;8.40;68.20
75621;DHT22;64574;48.506;-2.750;2024-01-06T11:29:47;8.30;68.90
75621;DHT22;64574;48.506;-2.750;2024-01-06T11:32:19;8.40;69.40
75621;DHT22;64574;48.506;-2.750;2024-01-06T11:34:52;8.50;69.40
75621;DHT22;64574;48.506;-2.750;2024-01-06T11:37:19;8.50;69.60
75621;DHT22;64574;48.506;-2.750;2024-01-06T11:39:45;8.70;69.00
75621;DHT22;64574;48.506;-2.750;2024-01-06T11:42:10;8.60;68.00
75621;DHT22;64574;48.506;-2.750;2024-01-06T11:44:37;8.50;68.70
75621;DHT22;64574;48.506;-2.750;2024-01-06T11:47:03;8.40;68.60
75621;DHT22;64574;48.506;-2.750;2024-01-06T11:49:29;8.40;68.50
75621;DHT22;64574;48.506;-2.750;2024-01-06T11:51:58;8.40;68.50
75621;DHT22;64574;48.506;-2.750;2024-01-06T11:54:24;8.50;68.40
75621;DHT22;64574;48.506;-2.750;2024-01-06T11:56:49;8.40;68.40
75621;DHT22;64574;48.506;-2.750;2024-01-06T11:59:15;8.40;68.30
75621;DHT22;64574;48.506;-2.750;2024-01-06T12:01:40;8.50;68.00
75621;DHT22;64574;48.506;-2.750;2024-01-06T12:04:06;8.60;68.20
75621;DHT22;64574;48.506;-2.750;2024-01-06T12:06:32;8.50;68.30
75621;DHT22;64574;48.506;-2.750;2024-01-06T12:09:07;8.50;68.70
75621;DHT22;64574;48.506;-2.750;2024-01-06T12:11:33;8.50;68.20
75621;DHT22;64574;48.506;-2.750;2024-01-06T12:13:59;8.60;67.80
75621;DHT22;64574;48.506;-2.750;2024-01-06T12:16:25;8.60;66.90
75621;DHT22;64574;48.506;-2.750;2024-01-06T12:18:54;8.60;66.40
75621;DHT22;64574;48.506;-2.750;2024-01-06T12:21:24;8.60;66.40
75621;DHT22;64574;48.506;-2.750;2024-01-06T12:23:50;8.60;66.50
75621;DHT22;64574;48.506;-2.750;2024-01-06T12:26:18;8.70;67.10
75621;DHT22;64574;48.506;-2.750;2024-01-06T12:28:44;8.80;66.70
75621;DHT22;64574;48.506;-2.750;2024-01-06T12:31:11;8.70;66.10
75621;DHT22;64574;48.506;-2.750;2024-01-06T12:33:40;8.70;66.60
75621;DHT22;64574;48.506;-2.750;2024-01-06T12:36:08;8.60;67.00
75621;DHT22;64574;48.506;-2.750;2024-01-06T12:38:36;8.70;66.30
75621;DHT22;64574;48.506;-2.750;2024-01-06T12:41:05;8.70;66.50
75621;DHT22;64574;48.506;-2.750;2024-01-06T12:43:31;8.60;66.80
75621;DHT22;64574;48.506;-2.750;2024-01-06T12:45:56;8.50;66.20
75621;DHT22;64574;48.506;-2.750;2024-01-06T12:48:23;8.50;66.60
75621;DHT22;64574;48.506;-2.750;2024-01-06T12:50:49;8.50;66.50
75621;DHT22;64574;48.506;-2.750;2024-01-06T12:53:14;8.30;66.70
75621;DHT22;64574;48.506;-2.750;2024-01-06T12:55:43;8.30;67.30
75621;DHT22;64574;48.506;-2.750;2024-01-06T12:58:09;8.30;67.20
75621;DHT22;64574;48.506;-2.750;2024-01-06T13:00:34;8.40;67.10
75621;DHT22;64574;48.506;-2.750;2024-01-06T13:03:00;8.60;66.60
75621;DHT22;64574;48.506;-2.750;2024-01-06T13:05:25;8.60;66.10
75621;DHT22;64574;48.506;-2.750;2024-01-06T13:07:51;8.70;66.00
75621;DHT22;64574;48.506;-2.750;2024-01-06T13:10:17;8.70;65.90
75621;DHT22;64574;48.506;-2.750;2024-01-06T13:12:42;8.60;66.30
75621;DHT22;64574;48.506;-2.750;2024-01-06T13:15:08;8.60;66.80
75621;DHT22;64574;48.506;-2.750;2024-01-06T13:17:36;8.50;67.00
75621;DHT22;64574;48.506;-2.750;2024-01-06T13:20:02;8.40;66.90
75621;DHT22;64574;48.506;-2.750;2024-01-06T13:22:28;8.50;67.40
75621;DHT22;64574;48.506;-2.750;2024-01-06T13:24:54;8.60;66.90
75621;DHT22;64574;48.506;-2.750;2024-01-06T13:27:19;8.60;66.70
75621;DHT22;64574;48.506;-2.750;2024-01-06T13:29:45;8.70;66.10
75621;DHT22;64574;48.506;-2.750;2024-01-06T13:32:10;8.60;66.50
75621;DHT22;64574;48.506;-2.750;2024-01-06T13:34:36;8.40;67.40
75621;DHT22;64574;48.506;-2.750;2024-01-06T13:37:02;8.10;66.50
75621;DHT22;64574;48.506;-2.750;2024-01-06T13:39:27;8.00;67.20
75621;DHT22;64574;48.506;-2.750;2024-01-06T13:41:53;8.20;66.00
75621;DHT22;64574;48.506;-2.750;2024-01-06T13:44:18;8.00;64.00
75621;DHT22;64574;48.506;-2.750;2024-01-06T13:46:44;8.00;64.90
75621;DHT22;64574;48.506;-2.750;2024-01-06T13:49:10;8.10;65.20
75621;DHT22;64574;48.506;-2.750;2024-01-06T13:51:36;8.10;66.20
75621;DHT22;64574;48.506;-2.750;2024-01-06T13:54:01;8.20;66.70
75621;DHT22;64574;48.506;-2.750;2024-01-06T13:56:27;8.30;66.70
75621;DHT22;64574;48.506;-2.750;2024-01-06T13:58:52;8.30;67.90
75621;DHT22;64574;48.506;-2.750;2024-01-06T14:01:18;8.40;68.30
75621;DHT22;64574;48.506;-2.750;2024-01-06T14:03:43;8.40;68.40
75621;DHT22;64574;48.506;-2.750;2024-01-06T14:06:09;8.20;69.10
75621;DHT22;64574;48.506;-2.750;2024-01-06T14:08:35;8.20;69.20
75621;DHT22;64574;48.506;-2.750;2024-01-06T14:11:00;8.20;68.50
75621;DHT22;64574;48.506;-2.750;2024-01-06T14:13:26;8.10;68.20
75621;DHT22;64574;48.506;-2.750;2024-01-06T14:15:51;8.20;67.50
75621;DHT22;64574;48.506;-2.750;2024-01-06T14:18:17;8.30;67.40
75621;DHT22;64574;48.506;-2.750;2024-01-06T14:20:42;8.30;67.70
75621;DHT22;64574;48.506;-2.750;2024-01-06T14:23:08;8.30;67.80
75621;DHT22;64574;48.506;-2.750;2024-01-06T14:25:35;8.30;67.50
75621;DHT22;64574;48.506;-2.750;2024-01-06T14:28:01;8.40;67.30
75621;DHT22;64574;48.506;-2.750;2024-01-06T14:30:26;8.40;67.70
75621;DHT22;64574;48.506;-2.750;2024-01-06T14:32:52;8.40;66.90
75621;DHT22;64574;48.506;-2.750;2024-01-06T14:35:17;8.40;66.80
75621;DHT22;64574;48.506;-2.750;2024-01-06T14:37:43;8.40;65.90
75621;DHT22;64574;48.506;-2.750;2024-01-06T14:40:11;8.30;65.80
75621;DHT22;64574;48.506;-2.750;2024-01-06T14:42:37;8.50;65.90
75621;DHT22;64574;48.506;-2.750;2024-01-06T14:45:03;8.60;66.00
75621;DHT22;64574;48.506;-2.750;2024-01-06T14:47:28;8.60;66.10
75621;DHT22;64574;48.506;-2.750;2024-01-06T14:49:54;8.50;66.90
75621;DHT22;64574;48.506;-2.750;2024-01-06T14:52:20;8.60;66.90
75621;DHT22;64574;48.506;-2.750;2024-01-06T14:54:45;8.50;66.20
75621;DHT22;64574;48.506;-2.750;2024-01-06T14:57:11;8.40;66.40
75621;DHT22;64574;48.506;-2.750;2024-01-06T14:59:37;8.40;66.10
75621;DHT22;64574;48.506;-2.750;2024-01-06T15:02:03;8.40;66.20
75621;DHT22;64574;48.506;-2.750;2024-01-06T15:04:29;8.30;66.10
75621;DHT22;64574;48.506;-2.750;2024-01-06T15:06:55;8.40;66.40
75621;DHT22;64574;48.506;-2.750;2024-01-06T15:09:21;8.50;66.70
75621;DHT22;64574;48.506;-2.750;2024-01-06T15:11:47;8.50;66.60
75621;DHT22;64574;48.506;-2.750;2024-01-06T15:14:13;8.50;65.90
75621;DHT22;64574;48.506;-2.750;2024-01-06T15:16:39;8.40;65.90
75621;DHT22;64574;48.506;-2.750;2024-01-06T15:19:05;8.40;66.50
75621;DHT22;64574;48.506;-2.750;2024-01-06T15:21:33;8.40;66.20
75621;DHT22;64574;48.506;-2.750;2024-01-06T15:24:00;8.40;66.50
75621;DHT22;64574;48.506;-2.750;2024-01-06T15:26:26;8.40;66.70
75621;DHT22;64574;48.506;-2.750;2024-01-06T15:28:52;8.40;67.30
75621;DHT22;64574;48.506;-2.750;2024-01-06T15:31:17;8.40;67.70